createdAt,value
2023-09-23T00:01:54.000Z,284.4
2023-09-23T00:03:21.000Z,284.46
2023-09-23T00:05:27.000Z,284.46
2023-09-23T00:06:54.000Z,284.46
2023-09-23T00:09:00.000Z,284.46
2023-09-23T00:10:27.000Z,284.46
2023-09-23T00:12:33.000Z,284.4
2023-09-23T00:13:59.000Z,284.4
2023-09-23T00:16:06.000Z,284.4
2023-09-23T00:17:32.000Z,284.4
2023-09-23T00:19:39.000Z,284.4
2023-09-23T00:22:24.000Z,284.4
2023-09-23T00:23:50.000Z,284.4
2023-09-23T00:25:57.000Z,284.4
2023-09-23T00:27:23.000Z,284.34
2023-09-23T00:29:29.000Z,284.34
2023-09-23T00:30:56.000Z,284.34
2023-09-23T00:33:02.000Z,284.4
2023-09-23T00:34:29.000Z,284.34
2023-09-23T00:36:35.000Z,284.27
2023-09-23T00:38:01.000Z,284.27
2023-09-23T00:40:08.000Z,284.15
2023-09-23T00:41:34.000Z,284.15
2023-09-23T00:43:40.000Z,284.15
2023-09-23T00:45:07.000Z,284.21
2023-09-23T00:47:13.000Z,284.21
2023-09-23T00:48:40.000Z,284.15
2023-09-23T00:50:46.000Z,284.21
2023-09-23T00:52:12.000Z,284.21
2023-09-23T00:54:19.000Z,284.27
2023-09-23T00:55:45.000Z,284.27
2023-09-23T00:57:51.000Z,284.27
2023-09-23T01:00:37.000Z,284.27
2023-09-23T01:02:03.000Z,284.27
2023-09-23T01:04:10.000Z,284.27
2023-09-23T01:05:36.000Z,284.27
2023-09-23T01:07:43.000Z,284.34
2023-09-23T01:09:09.000Z,284.34
2023-09-23T01:11:15.000Z,284.34
2023-09-23T01:12:42.000Z,284.34
2023-09-23T01:14:48.000Z,284.34
2023-09-23T01:16:15.000Z,284.34
2023-09-23T01:18:22.000Z,284.34
2023-09-23T01:19:48.000Z,284.4
2023-09-23T01:21:54.000Z,284.34
2023-09-23T01:23:21.000Z,284.34
2023-09-23T01:25:27.000Z,284.34
2023-09-23T01:26:53.000Z,284.34
2023-09-23T01:29:00.000Z,284.34
2023-09-23T01:30:26.000Z,284.34
2023-09-23T01:32:33.000Z,284.27
2023-09-23T01:33:59.000Z,284.34
2023-09-23T01:36:06.000Z,284.34
2023-09-23T01:38:51.000Z,284.27
2023-09-23T01:40:17.000Z,284.27
2023-09-23T01:42:24.000Z,284.34
2023-09-23T01:43:50.000Z,284.27
2023-09-23T01:45:56.000Z,284.27
2023-09-23T01:47:23.000Z,284.21
2023-09-23T01:49:29.000Z,284.21
2023-09-23T01:50:56.000Z,284.21
2023-09-23T01:53:02.000Z,284.21
2023-09-23T01:54:29.000Z,284.21
2023-09-23T01:56:35.000Z,284.21
2023-09-23T01:58:01.000Z,284.21
2023-09-23T02:00:08.000Z,284.15
2023-09-23T02:01:34.000Z,284.21
2023-09-23T02:03:41.000Z,284.15
2023-09-23T02:05:08.000Z,284.15
2023-09-23T02:07:14.000Z,284.09
2023-09-23T02:08:41.000Z,284.02
2023-09-23T02:10:47.000Z,283.96
2023-09-23T02:12:14.000Z,283.9
2023-09-23T02:14:20.000Z,283.84
2023-09-23T02:17:05.000Z,283.77
2023-09-23T02:18:32.000Z,283.77
2023-09-23T02:20:38.000Z,283.71
2023-09-23T02:22:04.000Z,283.71
2023-09-23T02:24:11.000Z,283.65
2023-09-23T02:25:37.000Z,283.71
2023-09-23T02:27:43.000Z,283.65
2023-09-23T02:29:10.000Z,283.65
2023-09-23T02:31:16.000Z,283.65
2023-09-23T02:32:43.000Z,283.59
2023-09-23T02:34:49.000Z,283.59
2023-09-23T02:36:15.000Z,283.52
2023-09-23T02:38:22.000Z,283.46
2023-09-23T02:39:48.000Z,283.46
2023-09-23T02:41:55.000Z,283.46
2023-09-23T02:43:21.000Z,283.46
2023-09-23T02:45:28.000Z,283.4
2023-09-23T02:46:54.000Z,283.4
2023-09-23T02:49:00.000Z,283.4
2023-09-23T02:50:27.000Z,283.4
2023-09-23T02:52:33.000Z,283.34
2023-09-23T02:55:19.000Z,283.27
2023-09-23T02:56:45.000Z,283.27
2023-09-23T02:58:52.000Z,283.34
2023-09-23T03:00:18.000Z,283.34
2023-09-23T03:02:24.000Z,283.27
2023-09-23T03:03:51.000Z,283.27
2023-09-23T03:05:58.000Z,283.21
2023-09-23T03:07:24.000Z,283.15
2023-09-23T03:09:30.000Z,283.15
2023-09-23T03:10:57.000Z,283.15
2023-09-23T03:13:04.000Z,283.02
2023-09-23T03:14:30.000Z,283.02
2023-09-23T03:16:36.000Z,283.09
2023-09-23T03:18:03.000Z,283.02
2023-09-23T03:20:09.000Z,283.02
2023-09-23T03:21:36.000Z,283.02
2023-09-23T03:23:42.000Z,283.09
2023-09-23T03:25:08.000Z,283.09
2023-09-23T03:27:15.000Z,283.09
2023-09-23T03:28:41.000Z,283.09
2023-09-23T03:30:48.000Z,283.09
2023-09-23T03:33:34.000Z,283.21
2023-09-23T03:35:01.000Z,283.27
2023-09-23T03:37:07.000Z,283.27
2023-09-23T03:38:36.000Z,283.34
2023-09-23T03:40:42.000Z,283.34
2023-09-23T03:42:09.000Z,283.4
2023-09-23T03:44:15.000Z,283.4
2023-09-23T03:45:41.000Z,283.46
2023-09-23T03:47:48.000Z,283.52
2023-09-23T03:49:14.000Z,283.59
2023-09-23T03:51:21.000Z,283.52
2023-09-23T03:52:47.000Z,283.52
2023-09-23T03:54:54.000Z,283.46
2023-09-23T03:56:20.000Z,283.46
2023-09-23T03:58:27.000Z,283.4
2023-09-23T03:59:53.000Z,283.4
2023-09-23T04:01:59.000Z,283.4
2023-09-23T04:03:26.000Z,283.4
2023-09-23T04:05:32.000Z,283.34
2023-09-23T04:06:59.000Z,283.34
2023-09-23T04:09:05.000Z,283.27
2023-09-23T04:11:50.000Z,283.21
2023-09-23T04:13:18.000Z,283.21
2023-09-23T04:15:24.000Z,283.21
2023-09-23T04:16:50.000Z,283.21
2023-09-23T04:18:57.000Z,283.15
2023-09-23T04:20:23.000Z,283.15
2023-09-23T04:22:29.000Z,283.09
2023-09-23T04:23:56.000Z,283.09
2023-09-23T04:26:02.000Z,283.09
2023-09-23T04:27:29.000Z,283.09
2023-09-23T04:29:35.000Z,283.02
2023-09-23T04:31:02.000Z,283.02
2023-09-23T04:33:08.000Z,282.96
2023-09-23T04:34:35.000Z,282.96
2023-09-23T04:36:42.000Z,282.96
2023-09-23T04:38:08.000Z,282.96
2023-09-23T04:40:14.000Z,282.84
2023-09-23T04:41:41.000Z,282.84
2023-09-23T04:43:47.000Z,282.77
2023-09-23T04:45:14.000Z,282.77
2023-09-23T04:47:20.000Z,282.77
2023-09-23T04:50:05.000Z,282.71
2023-09-23T04:51:32.000Z,282.65
2023-09-23T04:53:39.000Z,282.65
2023-09-23T04:55:05.000Z,282.65
2023-09-23T04:57:12.000Z,282.65
2023-09-23T04:58:38.000Z,282.65
2023-09-23T05:00:45.000Z,282.52
2023-09-23T05:02:11.000Z,282.52
2023-09-23T05:04:17.000Z,282.4
2023-09-23T05:05:44.000Z,282.4
2023-09-23T05:07:50.000Z,282.27
2023-09-23T05:09:17.000Z,282.34
2023-09-23T05:11:23.000Z,282.21
2023-09-23T05:12:50.000Z,282.27
2023-09-23T05:14:56.000Z,282.21
2023-09-23T05:16:23.000Z,282.27
2023-09-23T05:18:29.000Z,282.21
2023-09-23T05:19:55.000Z,282.21
2023-09-23T05:22:02.000Z,282.15
2023-09-23T05:23:29.000Z,282.21
2023-09-23T05:25:35.000Z,282.21
2023-09-23T05:28:20.000Z,282.15
2023-09-23T05:29:47.000Z,282.15
2023-09-23T05:31:53.000Z,282.21
2023-09-23T05:33:20.000Z,282.27
2023-09-23T05:35:26.000Z,282.27
2023-09-23T05:36:52.000Z,282.34
2023-09-23T05:38:59.000Z,282.4
2023-09-23T05:40:25.000Z,282.4
2023-09-23T05:42:32.000Z,282.46
2023-09-23T05:43:58.000Z,282.46
2023-09-23T05:46:04.000Z,282.52
2023-09-23T05:47:31.000Z,282.59
2023-09-23T05:49:37.000Z,282.59
2023-09-23T05:51:04.000Z,282.65
2023-09-23T05:53:10.000Z,282.65
2023-09-23T05:54:37.000Z,282.71
2023-09-23T05:56:43.000Z,282.71
2023-09-23T05:58:09.000Z,282.77
2023-09-23T06:00:16.000Z,282.84
2023-09-23T06:01:42.000Z,282.84
2023-09-23T06:03:48.000Z,282.9
2023-09-23T06:06:34.000Z,282.9
2023-09-23T06:08:00.000Z,282.96
2023-09-23T06:10:06.000Z,283.02
2023-09-23T06:11:33.000Z,283.02
2023-09-23T06:13:39.000Z,283.09
2023-09-23T06:15:06.000Z,283.09
2023-09-23T06:17:12.000Z,283.15
2023-09-23T06:18:39.000Z,283.15
2023-09-23T06:20:45.000Z,283.21
2023-09-23T06:22:11.000Z,283.27
2023-09-23T06:24:18.000Z,283.34
2023-09-23T06:25:44.000Z,283.34
2023-09-23T06:27:51.000Z,283.34
2023-09-23T06:29:17.000Z,283.46
2023-09-23T06:31:24.000Z,283.52
2023-09-23T06:32:50.000Z,283.46
2023-09-23T06:34:57.000Z,283.52
2023-09-23T06:36:23.000Z,283.52
2023-09-23T06:38:29.000Z,283.52
2023-09-23T06:39:56.000Z,283.52
2023-09-23T06:42:02.000Z,283.59
2023-09-23T06:44:48.000Z,283.65
2023-09-23T06:46:14.000Z,283.65
2023-09-23T06:48:21.000Z,283.65
2023-09-23T06:49:47.000Z,283.65
2023-09-23T06:51:54.000Z,283.65
2023-09-23T06:53:20.000Z,283.71
2023-09-23T06:55:26.000Z,283.71
2023-09-23T06:56:53.000Z,283.77
2023-09-23T06:58:59.000Z,283.77
2023-09-23T07:00:25.000Z,283.84
2023-09-23T07:02:32.000Z,283.84
2023-09-23T07:03:58.000Z,283.9
2023-09-23T07:06:05.000Z,284.02
2023-09-23T07:07:31.000Z,284.02
2023-09-23T07:09:37.000Z,284.09
2023-09-23T07:11:04.000Z,284.15
2023-09-23T07:13:10.000Z,284.15
2023-09-23T07:14:37.000Z,284.09
2023-09-23T07:16:44.000Z,284.15
2023-09-23T07:18:11.000Z,284.15
2023-09-23T07:20:17.000Z,284.15
2023-09-23T07:23:02.000Z,284.21
2023-09-23T07:24:29.000Z,284.27
2023-09-23T07:26:36.000Z,284.34
2023-09-23T07:28:02.000Z,284.4
2023-09-23T07:30:09.000Z,284.52
2023-09-23T07:31:35.000Z,284.59
2023-09-23T07:33:42.000Z,284.84
2023-09-23T07:35:08.000Z,284.96
2023-09-23T07:37:14.000Z,285.02
2023-09-23T07:38:41.000Z,285.02
2023-09-23T07:40:47.000Z,285.02
2023-09-23T07:42:14.000Z,284.96
2023-09-23T07:44:20.000Z,284.96
2023-09-23T07:45:47.000Z,285.02
2023-09-23T07:47:53.000Z,285.09
2023-09-23T07:49:20.000Z,285.15
2023-09-23T07:51:26.000Z,285.09
2023-09-23T07:52:53.000Z,285.09
2023-09-23T07:55:00.000Z,285.15
2023-09-23T07:56:26.000Z,285.21
2023-09-23T07:58:33.000Z,285.27
2023-09-23T08:01:18.000Z,285.59
2023-09-23T08:02:44.000Z,285.59
2023-09-23T08:04:51.000Z,285.59
2023-09-23T08:06:18.000Z,285.52
2023-09-23T08:08:24.000Z,285.59
2023-09-23T08:09:51.000Z,285.52
2023-09-23T08:11:57.000Z,285.4
2023-09-23T08:13:23.000Z,285.4
2023-09-23T08:15:29.000Z,285.34
2023-09-23T08:16:56.000Z,285.34
2023-09-23T08:19:03.000Z,285.34
2023-09-23T08:20:29.000Z,285.34
2023-09-23T08:22:36.000Z,285.4
2023-09-23T08:24:02.000Z,285.4
2023-09-23T08:26:08.000Z,285.52
2023-09-23T08:27:35.000Z,285.59
2023-09-23T08:29:42.000Z,285.46
2023-09-23T08:31:08.000Z,285.46
2023-09-23T08:33:14.000Z,285.59
2023-09-23T08:34:41.000Z,285.65
2023-09-23T08:36:47.000Z,285.77
2023-09-23T08:39:32.000Z,286.02
2023-09-23T08:40:59.000Z,286.02
2023-09-23T08:43:05.000Z,286.02
2023-09-23T08:44:32.000Z,286.15
2023-09-23T08:46:39.000Z,286.15
2023-09-23T08:48:05.000Z,286.09
2023-09-23T08:50:11.000Z,286.34
2023-09-23T08:51:38.000Z,286.4
2023-09-23T08:53:44.000Z,286.46
2023-09-23T08:55:11.000Z,286.46
2023-09-23T08:57:17.000Z,286.15
2023-09-23T08:58:43.000Z,286.02
2023-09-23T09:00:50.000Z,285.96
2023-09-23T09:02:17.000Z,285.96
2023-09-23T09:04:23.000Z,285.96
2023-09-23T09:05:50.000Z,285.96
2023-09-23T09:07:56.000Z,285.84
2023-09-23T09:09:23.000Z,285.84
2023-09-23T09:11:30.000Z,285.96
2023-09-23T09:12:56.000Z,285.96
2023-09-23T09:15:04.000Z,286.02
2023-09-23T09:17:49.000Z,286.21
2023-09-23T09:19:16.000Z,286.34
2023-09-23T09:21:22.000Z,286.4
2023-09-23T09:22:48.000Z,286.34
2023-09-23T09:24:55.000Z,286.4
2023-09-23T09:26:21.000Z,286.34
2023-09-23T09:28:27.000Z,286.46
2023-09-23T09:29:54.000Z,286.4
2023-09-23T09:32:16.000Z,286.21
2023-09-23T09:33:43.000Z,286.34
2023-09-23T09:35:49.000Z,286.27
2023-09-23T09:37:16.000Z,286.21
2023-09-23T09:39:22.000Z,286.34
2023-09-23T09:40:48.000Z,286.34
2023-09-23T09:42:55.000Z,286.34
2023-09-23T09:44:21.000Z,286.34
2023-09-23T09:46:28.000Z,286.21
2023-09-23T09:47:55.000Z,286.15
2023-09-23T09:50:01.000Z,286.09
2023-09-23T09:51:27.000Z,286.02
2023-09-23T09:53:34.000Z,286.15
2023-09-23T09:56:19.000Z,286.09
2023-09-23T09:57:46.000Z,286.09
2023-09-23T09:59:53.000Z,286.09
2023-09-23T10:01:19.000Z,286.02
2023-09-23T10:03:26.000Z,286.02
2023-09-23T10:04:52.000Z,286.02
2023-09-23T10:06:59.000Z,286.09
2023-09-23T10:08:25.000Z,286.21
2023-09-23T10:10:31.000Z,286.34
2023-09-23T10:11:58.000Z,286.4
2023-09-23T10:14:04.000Z,286.46
2023-09-23T10:15:31.000Z,286.59
2023-09-23T10:17:37.000Z,286.59
2023-09-23T10:19:04.000Z,286.65
2023-09-23T10:21:11.000Z,286.71
2023-09-23T10:22:37.000Z,286.84
2023-09-23T10:24:43.000Z,286.9
2023-09-23T10:26:10.000Z,286.9
2023-09-23T10:28:16.000Z,286.84
2023-09-23T10:29:43.000Z,286.77
2023-09-23T10:31:49.000Z,286.77
2023-09-23T10:34:34.000Z,286.65
2023-09-23T10:36:11.000Z,286.65
2023-09-23T10:38:17.000Z,286.71
2023-09-23T10:39:43.000Z,286.71
2023-09-23T10:41:49.000Z,286.71
2023-09-23T10:43:16.000Z,286.77
2023-09-23T10:45:22.000Z,286.96
2023-09-23T10:46:49.000Z,286.9
2023-09-23T10:48:55.000Z,286.96
2023-09-23T10:50:21.000Z,286.96
2023-09-23T10:52:28.000Z,286.9
2023-09-23T10:53:54.000Z,286.96
2023-09-23T10:56:01.000Z,286.96
2023-09-23T10:57:27.000Z,287.02
2023-09-23T10:59:34.000Z,287.09
2023-09-23T11:01:00.000Z,287.15
2023-09-23T11:03:06.000Z,286.96
2023-09-23T11:04:33.000Z,286.9
2023-09-23T11:06:40.000Z,286.96
2023-09-23T11:08:06.000Z,286.96
2023-09-23T11:10:13.000Z,287.02
2023-09-23T11:12:58.000Z,287.09
2023-09-23T11:14:25.000Z,287.02
2023-09-23T11:16:31.000Z,287.02
2023-09-23T11:17:58.000Z,287.27
2023-09-23T11:20:04.000Z,287.52
2023-09-23T11:21:31.000Z,287.52
2023-09-23T11:23:37.000Z,287.71
2023-09-23T11:25:03.000Z,287.71
2023-09-23T11:27:10.000Z,287.59
2023-09-23T11:28:36.000Z,287.65
2023-09-23T11:30:42.000Z,287.84
2023-09-23T11:32:09.000Z,287.96
2023-09-23T11:34:15.000Z,287.96
2023-09-23T11:35:41.000Z,287.96
2023-09-23T11:37:48.000Z,288.09
2023-09-23T11:39:14.000Z,288.27
2023-09-23T11:41:20.000Z,288.52
2023-09-23T11:42:47.000Z,288.46
2023-09-23T11:44:53.000Z,288.27
2023-09-23T11:46:19.000Z,288.4
2023-09-23T11:48:26.000Z,288.46
2023-09-23T11:51:12.000Z,288.59
2023-09-23T11:52:38.000Z,288.65
2023-09-23T11:54:45.000Z,288.71
2023-09-23T11:56:11.000Z,288.65
2023-09-23T11:58:18.000Z,288.52
2023-09-23T11:59:44.000Z,288.71
2023-09-23T12:01:50.000Z,288.59
2023-09-23T12:03:17.000Z,288.52
2023-09-23T12:05:24.000Z,288.71
2023-09-23T12:06:51.000Z,288.84
2023-09-23T12:08:57.000Z,288.96
2023-09-23T12:10:23.000Z,288.96
2023-09-23T12:12:30.000Z,288.77
2023-09-23T12:13:56.000Z,288.71
2023-09-23T12:16:02.000Z,288.59
2023-09-23T12:17:29.000Z,288.52
2023-09-23T12:19:36.000Z,288.46
2023-09-23T12:21:02.000Z,288.4
2023-09-23T12:23:08.000Z,288.4
2023-09-23T12:24:35.000Z,288.34
2023-09-23T12:26:41.000Z,288.46
2023-09-23T12:29:26.000Z,288.71
2023-09-23T12:30:53.000Z,289.02
2023-09-23T12:33:00.000Z,288.9
2023-09-23T12:34:27.000Z,288.71
2023-09-23T12:36:33.000Z,288.46
2023-09-23T12:38:00.000Z,288.34
2023-09-23T12:40:06.000Z,288.46
2023-09-23T12:41:33.000Z,288.52
2023-09-23T12:43:39.000Z,288.9
2023-09-23T12:45:06.000Z,289.21
2023-09-23T12:47:14.000Z,289.4
2023-09-23T12:48:40.000Z,289.4
2023-09-23T12:50:47.000Z,289.65
2023-09-23T12:52:13.000Z,289.9
2023-09-23T12:54:19.000Z,289.96
2023-09-23T12:55:46.000Z,289.9
2023-09-23T12:57:52.000Z,290.02
2023-09-23T12:59:19.000Z,289.96
2023-09-23T13:01:25.000Z,289.71
2023-09-23T13:02:52.000Z,289.71
2023-09-23T13:04:58.000Z,289.59
2023-09-23T13:07:43.000Z,289.71
2023-09-23T13:09:10.000Z,289.84
2023-09-23T13:11:16.000Z,290.09
2023-09-23T13:12:43.000Z,290.15
2023-09-23T13:14:49.000Z,289.96
2023-09-23T13:16:16.000Z,289.9
2023-09-23T13:18:22.000Z,290.02
2023-09-23T13:19:49.000Z,289.9
2023-09-23T13:21:55.000Z,290.15
2023-09-23T13:23:22.000Z,290.09
2023-09-23T13:25:28.000Z,290.02
2023-09-23T13:26:54.000Z,289.96
2023-09-23T13:29:01.000Z,290.09
2023-09-23T13:30:27.000Z,290.09
2023-09-23T13:32:34.000Z,290.15
2023-09-23T13:34:00.000Z,290.21
2023-09-23T13:36:09.000Z,290.34
2023-09-23T13:37:36.000Z,290.27
2023-09-23T13:39:42.000Z,290.15
2023-09-23T13:41:08.000Z,290.09
2023-09-23T13:43:15.000Z,290.09
2023-09-23T13:46:01.000Z,289.96
2023-09-23T13:47:27.000Z,290.15
2023-09-23T13:49:34.000Z,290.21
2023-09-23T13:51:00.000Z,290.34
2023-09-23T13:53:07.000Z,290.27
2023-09-23T13:54:33.000Z,290.09
2023-09-23T13:56:39.000Z,289.9
2023-09-23T13:58:06.000Z,290.09
2023-09-23T14:00:12.000Z,290.15
2023-09-23T14:01:39.000Z,290.21
2023-09-23T14:03:45.000Z,290.27
2023-09-23T14:05:12.000Z,290.27
2023-09-23T14:07:18.000Z,289.9
2023-09-23T14:08:44.000Z,289.77
2023-09-23T14:10:51.000Z,289.77
2023-09-23T14:12:18.000Z,289.9
2023-09-23T14:14:24.000Z,290.09
2023-09-23T14:15:50.000Z,290.02
2023-09-23T14:17:57.000Z,289.96
2023-09-23T14:19:23.000Z,289.84
2023-09-23T14:21:29.000Z,289.96
2023-09-23T14:24:15.000Z,289.96
2023-09-23T14:25:41.000Z,289.9
2023-09-23T14:27:47.000Z,289.9
2023-09-23T14:29:14.000Z,289.9
2023-09-23T14:31:20.000Z,289.84
2023-09-23T14:32:47.000Z,289.9
2023-09-23T14:34:53.000Z,289.9
2023-09-23T14:36:20.000Z,289.96
2023-09-23T14:38:26.000Z,290.02
2023-09-23T14:39:53.000Z,289.96
2023-09-23T14:41:59.000Z,290.09
2023-09-23T14:43:26.000Z,289.9
2023-09-23T14:45:33.000Z,289.84
2023-09-23T14:46:59.000Z,289.71
2023-09-23T14:49:06.000Z,289.65
2023-09-23T14:50:32.000Z,289.71
2023-09-23T14:52:38.000Z,289.71
2023-09-23T14:54:05.000Z,289.77
2023-09-23T14:56:11.000Z,289.84
2023-09-23T14:57:38.000Z,289.84
2023-09-23T14:59:45.000Z,289.9
2023-09-23T15:02:30.000Z,289.96
2023-09-23T15:03:57.000Z,289.96
2023-09-23T15:06:04.000Z,290.02
2023-09-23T15:07:30.000Z,289.96
2023-09-23T15:09:37.000Z,290.02
2023-09-23T15:11:03.000Z,290.02
2023-09-23T15:13:10.000Z,289.96
2023-09-23T15:14:36.000Z,290.02
2023-09-23T15:16:42.000Z,290.02
2023-09-23T15:18:09.000Z,289.96
2023-09-23T15:20:16.000Z,290.02
2023-09-23T15:21:42.000Z,290.02
2023-09-23T15:23:49.000Z,289.9
2023-09-23T15:25:15.000Z,289.9
2023-09-23T15:27:22.000Z,289.71
2023-09-23T15:28:48.000Z,289.71
2023-09-23T15:30:55.000Z,289.77
2023-09-23T15:32:21.000Z,289.65
2023-09-23T15:34:27.000Z,289.59
2023-09-23T15:35:54.000Z,289.46
2023-09-23T15:38:01.000Z,289.52
2023-09-23T15:40:46.000Z,289.4
2023-09-23T15:42:13.000Z,289.27
2023-09-23T15:44:19.000Z,289.27
2023-09-23T15:45:46.000Z,289.27
2023-09-23T15:47:52.000Z,289.46
2023-09-23T15:49:18.000Z,289.52
2023-09-23T15:51:25.000Z,289.59
2023-09-23T15:52:51.000Z,289.59
2023-09-23T15:54:57.000Z,289.52
2023-09-23T15:56:24.000Z,289.59
2023-09-23T15:58:30.000Z,289.52
2023-09-23T15:59:56.000Z,289.52
2023-09-23T16:02:03.000Z,289.46
2023-09-23T16:03:29.000Z,289.34
2023-09-23T16:05:36.000Z,289.34
2023-09-23T16:07:02.000Z,289.27
2023-09-23T16:09:09.000Z,289.21
2023-09-23T16:10:35.000Z,289.27
2023-09-23T16:12:41.000Z,289.09
2023-09-23T16:14:08.000Z,289.15
2023-09-23T16:16:14.000Z,289.09
2023-09-23T16:19:00.000Z,289.02
2023-09-23T16:20:26.000Z,288.96
2023-09-23T16:22:33.000Z,288.9
2023-09-23T16:23:59.000Z,288.71
2023-09-23T16:26:05.000Z,288.65
2023-09-23T16:27:32.000Z,288.52
2023-09-23T16:29:38.000Z,288.34
2023-09-23T16:31:05.000Z,288.27
2023-09-23T16:33:12.000Z,288.15
2023-09-23T16:34:38.000Z,288.09
2023-09-23T16:36:44.000Z,288.02
2023-09-23T16:38:11.000Z,287.96
2023-09-23T16:40:17.000Z,287.77
2023-09-23T16:41:44.000Z,287.71
2023-09-23T16:43:50.000Z,287.59
2023-09-23T16:45:16.000Z,287.52
2023-09-23T16:47:23.000Z,287.46
2023-09-23T16:48:49.000Z,287.4
2023-09-23T16:50:56.000Z,287.4
2023-09-23T16:52:22.000Z,287.27
2023-09-23T16:54:29.000Z,287.21
2023-09-23T16:57:14.000Z,286.96
2023-09-23T16:58:40.000Z,286.96
2023-09-23T17:00:46.000Z,286.84
2023-09-23T17:02:13.000Z,286.71
2023-09-23T17:04:20.000Z,286.65
2023-09-23T17:05:46.000Z,286.59
2023-09-23T17:07:53.000Z,286.59
2023-09-23T17:09:19.000Z,286.52
2023-09-23T17:11:26.000Z,286.52
2023-09-23T17:12:52.000Z,286.59
2023-09-23T17:14:59.000Z,286.46
2023-09-23T17:16:25.000Z,286.34
2023-09-23T17:18:31.000Z,286.21
2023-09-23T17:19:58.000Z,286.09
2023-09-23T17:22:04.000Z,285.9
2023-09-23T17:23:31.000Z,285.84
2023-09-23T17:25:37.000Z,285.71
2023-09-23T17:27:04.000Z,285.65
2023-09-23T17:29:10.000Z,285.59
2023-09-23T17:30:37.000Z,285.52
2023-09-23T17:32:43.000Z,285.46
2023-09-23T17:35:28.000Z,285.27
2023-09-23T17:36:55.000Z,285.27
2023-09-23T17:39:01.000Z,285.21
2023-09-23T17:40:27.000Z,285.27
2023-09-23T17:42:34.000Z,285.27
2023-09-23T17:44:00.000Z,285.27
2023-09-23T17:46:07.000Z,285.21
2023-09-23T17:47:33.000Z,285.21
2023-09-23T17:49:39.000Z,285.15
2023-09-23T17:51:06.000Z,285.15
2023-09-23T17:53:12.000Z,285.02
2023-09-23T17:54:39.000Z,285.02
2023-09-23T17:56:45.000Z,284.96
2023-09-23T17:58:11.000Z,284.9
2023-09-23T18:00:18.000Z,284.84
2023-09-23T18:01:44.000Z,284.84
2023-09-23T18:03:50.000Z,284.77
2023-09-23T18:05:17.000Z,284.77
2023-09-23T18:07:24.000Z,284.77
2023-09-23T18:08:50.000Z,284.77
2023-09-23T18:10:56.000Z,284.9
2023-09-23T18:13:42.000Z,284.9
2023-09-23T18:15:09.000Z,284.84
2023-09-23T18:17:15.000Z,284.84
2023-09-23T18:18:47.000Z,284.84
2023-09-23T18:20:53.000Z,284.96
2023-09-23T18:22:20.000Z,284.96
2023-09-23T18:24:26.000Z,285.02
2023-09-23T18:25:53.000Z,285.02
2023-09-23T18:27:59.000Z,285.02
2023-09-23T18:29:25.000Z,284.96
2023-09-23T18:31:32.000Z,284.96
2023-09-23T18:32:58.000Z,284.96
2023-09-23T18:35:05.000Z,284.9
2023-09-23T18:36:31.000Z,284.96
2023-09-23T18:38:38.000Z,285.02
2023-09-23T18:40:04.000Z,285.09
2023-09-23T18:42:11.000Z,285.09
2023-09-23T18:43:37.000Z,285.09
2023-09-23T18:45:43.000Z,285.09
2023-09-23T18:47:10.000Z,285.09
2023-09-23T18:49:16.000Z,285.09
2023-09-23T18:52:02.000Z,285.15
2023-09-23T18:53:28.000Z,285.09
2023-09-23T18:55:35.000Z,285.15
2023-09-23T18:57:01.000Z,285.15
2023-09-23T18:59:07.000Z,285.21
2023-09-23T19:00:34.000Z,285.21
2023-09-23T19:02:40.000Z,285.21
2023-09-23T19:04:07.000Z,285.15
2023-09-23T19:06:13.000Z,285.15
2023-09-23T19:07:41.000Z,285.15
2023-09-23T19:09:48.000Z,285.09
2023-09-23T19:11:14.000Z,285.02
2023-09-23T19:13:20.000Z,284.96
2023-09-23T19:14:47.000Z,284.96
2023-09-23T19:16:53.000Z,284.96
2023-09-23T19:18:20.000Z,284.9
2023-09-23T19:20:26.000Z,284.9
2023-09-23T19:21:52.000Z,284.9
2023-09-23T19:23:58.000Z,284.84
2023-09-23T19:25:25.000Z,284.84
2023-09-23T19:27:31.000Z,284.77
2023-09-23T19:30:16.000Z,284.77
2023-09-23T19:31:48.000Z,284.77
2023-09-23T19:33:54.000Z,284.77
2023-09-23T19:35:21.000Z,284.77
2023-09-23T19:37:27.000Z,284.71
2023-09-23T19:38:54.000Z,284.71
2023-09-23T19:41:00.000Z,284.59
2023-09-23T19:42:27.000Z,284.59
2023-09-23T19:44:33.000Z,284.46
2023-09-23T19:46:00.000Z,284.4
2023-09-23T19:48:06.000Z,284.4
2023-09-23T19:49:33.000Z,284.4
2023-09-23T19:51:39.000Z,284.4
2023-09-23T19:53:05.000Z,284.34
2023-09-23T19:55:12.000Z,284.15
2023-09-23T19:56:38.000Z,284.15
2023-09-23T19:58:45.000Z,284.09
2023-09-23T20:00:11.000Z,284.02
2023-09-23T20:02:18.000Z,283.65
2023-09-23T20:03:44.000Z,283.52
2023-09-23T20:05:51.000Z,283.27
2023-09-23T20:08:37.000Z,283.27
2023-09-23T20:10:03.000Z,283.21
2023-09-23T20:12:10.000Z,283.15
2023-09-23T20:13:36.000Z,283.15
2023-09-23T20:15:42.000Z,283.09
2023-09-23T20:17:09.000Z,283.09
2023-09-23T20:19:15.000Z,283.09
2023-09-23T20:20:42.000Z,282.96
2023-09-23T20:22:48.000Z,282.84
2023-09-23T20:24:14.000Z,282.77
2023-09-23T20:26:21.000Z,282.71
2023-09-23T20:27:47.000Z,282.65
2023-09-23T20:29:54.000Z,282.65
2023-09-23T20:31:32.000Z,282.71
2023-09-23T20:33:38.000Z,282.59
2023-09-23T20:35:05.000Z,282.52
2023-09-23T20:37:11.000Z,282.46
2023-09-23T20:38:37.000Z,282.46
2023-09-23T20:40:44.000Z,282.52
2023-09-23T20:42:10.000Z,282.52
2023-09-23T20:44:16.000Z,282.4
2023-09-23T20:47:02.000Z,282.27
2023-09-23T20:48:28.000Z,282.27
2023-09-23T20:50:35.000Z,282.27
2023-09-23T20:52:01.000Z,282.34
2023-09-23T20:54:08.000Z,282.21
2023-09-23T20:55:34.000Z,282.15
2023-09-23T20:57:40.000Z,282.09
2023-09-23T20:59:07.000Z,282.15
2023-09-23T21:01:13.000Z,282.09
2023-09-23T21:02:40.000Z,282.15
2023-09-23T21:04:46.000Z,282.09
2023-09-23T21:06:13.000Z,282.02
2023-09-23T21:08:19.000Z,282.02
2023-09-23T21:09:46.000Z,282.15
2023-09-23T21:11:52.000Z,282.15
2023-09-23T21:13:18.000Z,282.15
2023-09-23T21:15:24.000Z,282.02
2023-09-23T21:16:51.000Z,281.96
2023-09-23T21:18:57.000Z,281.9
2023-09-23T21:20:24.000Z,281.84
2023-09-23T21:22:30.000Z,281.77
2023-09-23T21:25:15.000Z,281.71
2023-09-23T21:26:42.000Z,281.77
2023-09-23T21:28:49.000Z,281.71
2023-09-23T21:30:15.000Z,281.71
2023-09-23T21:32:21.000Z,281.71
2023-09-23T21:33:48.000Z,281.77
2023-09-23T21:35:54.000Z,281.71
2023-09-23T21:37:21.000Z,281.77
2023-09-23T21:39:27.000Z,281.65
2023-09-23T21:40:54.000Z,281.59
2023-09-23T21:43:00.000Z,281.52
2023-09-23T21:44:26.000Z,281.4
2023-09-23T21:46:33.000Z,281.52
2023-09-23T21:47:59.000Z,281.52
2023-09-23T21:50:06.000Z,281.4
2023-09-23T21:51:32.000Z,281.34
2023-09-23T21:53:39.000Z,281.27
2023-09-23T21:55:05.000Z,281.21
2023-09-23T21:57:12.000Z,281.15
2023-09-23T21:58:38.000Z,281.09
2023-09-23T22:00:45.000Z,281.15
2023-09-23T22:03:30.000Z,281.09
2023-09-23T22:04:57.000Z,281.02
2023-09-23T22:07:03.000Z,281.02
2023-09-23T22:08:30.000Z,281.09
2023-09-23T22:10:36.000Z,281.15
2023-09-23T22:12:03.000Z,281.15
2023-09-23T22:14:09.000Z,281.09
2023-09-23T22:15:36.000Z,281.09
2023-09-23T22:17:42.000Z,280.96
2023-09-23T22:19:09.000Z,280.96
2023-09-23T22:21:15.000Z,280.9
2023-09-23T22:22:41.000Z,280.9
2023-09-23T22:24:48.000Z,280.77
2023-09-23T22:26:14.000Z,280.84
2023-09-23T22:28:21.000Z,280.9
2023-09-23T22:29:48.000Z,280.9
2023-09-23T22:31:54.000Z,280.77
2023-09-23T22:33:22.000Z,280.71
2023-09-23T22:35:29.000Z,280.71
2023-09-23T22:36:55.000Z,280.71
2023-09-23T22:39:02.000Z,280.71
2023-09-23T22:41:47.000Z,280.65
2023-09-23T22:43:14.000Z,280.65
2023-09-23T22:45:20.000Z,280.65
2023-09-23T22:47:03.000Z,280.59
2023-09-23T22:49:09.000Z,280.65
2023-09-23T22:50:36.000Z,280.71